createdAt,value
2019-04-03T00:02:45.376Z,2.53
2019-04-03T00:05:36.228Z,2.20
2019-04-03T00:08:26.068Z,2.90
2019-04-03T00:10:59.002Z,2.40
2019-04-03T00:13:54.299Z,2.40
2019-04-03T00:16:25.531Z,1.73
2019-04-03T00:19:18.678Z,2.20
2019-04-03T00:24:50.634Z,1.90
2019-04-03T00:27:37.619Z,2.10
2019-04-03T00:30:21.861Z,1.90
2019-04-03T00:33:41.755Z,1.80
2019-04-03T00:36:23.882Z,1.80
2019-04-03T00:38:57.651Z,1.90
2019-04-03T00:41:30.736Z,1.87
2019-04-03T00:44:02.357Z,1.63
2019-04-03T00:46:33.324Z,1.90
2019-04-03T00:54:59.339Z,1.90
2019-04-03T00:58:07.630Z,1.70
2019-04-03T01:01:01.354Z,1.87
2019-04-03T01:03:51.920Z,1.90
2019-04-03T01:07:02.046Z,2.10
2019-04-03T01:09:45.219Z,1.97
2019-04-03T01:12:36.770Z,1.90
2019-04-03T01:15:26.790Z,1.80
2019-04-03T01:18:16.949Z,1.70
2019-04-03T01:21:07.341Z,1.60
2019-04-03T01:23:57.321Z,1.60
2019-04-03T01:26:40.679Z,1.40
2019-04-03T01:29:23.893Z,1.73
2019-04-03T01:32:05.543Z,2.90
2019-04-03T01:34:47.705Z,4.20
2019-04-03T01:37:37.728Z,3.23
2019-04-03T01:40:27.530Z,3.13
2019-04-03T01:43:18.265Z,2.50
2019-04-03T01:49:18.687Z,2.70
2019-04-03T01:52:10.002Z,2.50
2019-04-03T01:54:41.001Z,3.00
2019-04-03T01:57:32.207Z,2.50
2019-04-03T02:00:22.207Z,2.67
2019-04-03T02:02:53.326Z,2.70
2019-04-03T02:05:43.972Z,3.10
2019-04-03T02:08:35.701Z,2.70
2019-04-03T02:11:25.662Z,2.97
2019-04-03T02:14:16.004Z,4.53
2019-04-03T02:16:57.614Z,3.77
2019-04-03T02:19:28.366Z,3.77
2019-04-03T02:22:18.240Z,3.67
2019-04-03T02:25:08.302Z,3.30
2019-04-03T02:27:58.165Z,2.90
2019-04-03T02:30:47.818Z,3.33
2019-04-03T02:33:37.905Z,3.23
2019-04-03T02:36:27.974Z,3.40
2019-04-03T02:39:17.716Z,3.00
2019-04-03T02:42:09.880Z,3.40
2019-04-03T02:45:00.437Z,3.57
2019-04-03T02:47:33.543Z,2.60
2019-04-03T02:50:26.060Z,2.47
2019-04-03T02:53:16.122Z,2.30
2019-04-03T02:56:06.470Z,2.00
2019-04-03T02:58:57.548Z,2.50
2019-04-03T03:01:28.504Z,2.50
2019-04-03T03:04:21.810Z,1.80
2019-04-03T03:07:10.709Z,2.20
2019-04-03T03:09:45.684Z,2.00
2019-04-03T03:12:14.610Z,2.20
2019-04-03T03:15:04.937Z,2.43
2019-04-03T03:17:37.276Z,2.50
2019-04-03T03:20:09.079Z,2.20
2019-04-03T03:22:41.426Z,2.40
2019-04-03T03:25:12.858Z,2.73
2019-04-03T03:28:02.881Z,2.50
2019-04-03T03:31:14.241Z,2.80
2019-04-03T03:34:00.417Z,2.73
2019-04-03T03:36:49.221Z,2.60
2019-04-03T03:42:57.676Z,3.13
2019-04-03T03:45:31.704Z,2.83
2019-04-03T03:48:03.744Z,3.13
2019-04-03T03:50:38.375Z,2.87
2019-04-03T03:53:28.894Z,3.53
2019-04-03T03:56:39.027Z,3.20
2019-04-03T03:59:29.434Z,3.40
2019-04-03T04:02:19.313Z,3.80
2019-04-03T04:07:51.227Z,3.53
2019-04-03T04:10:25.204Z,3.93
2019-04-03T04:12:55.112Z,4.10
2019-04-03T04:15:44.987Z,4.23
2019-04-03T04:18:16.424Z,4.47
2019-04-03T04:21:09.390Z,4.73
2019-04-03T04:27:19.436Z,4.47
2019-04-03T04:30:11.985Z,4.40
2019-04-03T04:33:00.901Z,4.83
2019-04-03T04:35:52.425Z,4.37
2019-04-03T04:38:42.059Z,4.20
2019-04-03T04:41:32.617Z,4.27
2019-04-03T04:44:23.223Z,4.27
2019-04-03T04:53:36.454Z,4.30
2019-04-03T04:56:07.488Z,4.93
2019-04-03T04:58:57.563Z,4.43
2019-04-03T05:01:49.139Z,5.10
2019-04-03T05:10:51.018Z,8.60
2019-04-03T05:13:32.760Z,6.13
2019-04-03T05:16:20.951Z,5.67
2019-04-03T05:19:10.227Z,5.20
2019-04-03T05:21:54.012Z,5.20
2019-04-03T05:24:28.860Z,5.50
2019-04-03T05:27:03.400Z,5.73
2019-04-03T05:35:56.411Z,5.80
2019-04-03T05:42:10.051Z,5.83
2019-04-03T05:45:24.090Z,6.60
2019-04-03T05:48:12.611Z,5.77
2019-04-03T05:53:42.248Z,6.67
2019-04-03T06:02:29.827Z,5.93
2019-04-03T06:05:02.195Z,6.83
2019-04-03T06:08:03.835Z,7.13
2019-04-03T06:10:54.194Z,5.90
2019-04-03T06:13:36.672Z,7.00
2019-04-03T06:16:24.553Z,6.53
2019-04-03T06:19:19.532Z,6.50
2019-04-03T06:22:10.342Z,6.40
2019-04-03T06:25:03.434Z,5.80
2019-04-03T06:27:58.048Z,5.57
2019-04-03T06:34:07.374Z,5.90
2019-04-03T06:36:58.409Z,5.97
2019-04-03T06:39:48.545Z,6.37
2019-04-03T06:42:39.228Z,6.40
2019-04-03T06:45:45.093Z,5.83
2019-04-03T06:58:07.813Z,6.33
2019-04-03T07:01:30.020Z,6.17
2019-04-03T07:03:50.329Z,6.23
2019-04-03T07:06:40.665Z,6.23
2019-04-03T07:09:50.826Z,6.17
2019-04-03T07:12:24.129Z,5.87
2019-04-03T07:15:15.341Z,7.57
2019-04-03T07:18:06.551Z,6.57
2019-04-03T07:24:15.528Z,4.97
2019-04-03T07:27:00.723Z,5.57
2019-04-03T07:29:34.534Z,5.57
2019-04-03T07:32:15.905Z,5.40
2019-04-03T07:34:50.591Z,4.60
2019-04-03T07:37:23.385Z,5.30
2019-04-03T07:40:31.858Z,4.63
2019-04-03T07:43:20.567Z,5.03
2019-04-03T07:46:33.254Z,4.73
2019-04-03T07:49:31.937Z,4.67
2019-04-03T07:55:20.257Z,4.63
2019-04-03T07:58:33.465Z,4.73
2019-04-03T08:01:46.175Z,3.83
2019-04-03T08:04:38.857Z,3.80
2019-04-03T08:10:57.565Z,3.87
2019-04-03T08:13:47.509Z,3.90
2019-04-03T08:16:48.150Z,4.80
2019-04-03T08:22:39.113Z,4.30
2019-04-03T08:25:53.941Z,4.13
2019-04-03T08:29:11.015Z,4.70
2019-04-03T08:31:51.924Z,4.50
2019-04-03T08:41:04.839Z,3.40
2019-04-03T08:44:02.414Z,3.40
2019-04-03T08:47:17.587Z,3.40
2019-04-03T08:53:24.576Z,3.10
2019-04-03T08:56:38.824Z,3.00
2019-04-03T08:59:13.456Z,3.10
2019-04-03T09:02:07.054Z,3.03
2019-04-03T09:05:33.384Z,2.60
2019-04-03T09:12:14.117Z,1.90
2019-04-03T09:15:10.097Z,1.70
2019-04-03T09:18:00.955Z,1.90
2019-04-03T09:21:21.829Z,1.90
2019-04-03T09:24:18.797Z,2.13
2019-04-03T09:27:13.465Z,2.70
2019-04-03T09:36:13.642Z,2.53
2019-04-03T09:39:20.082Z,2.37
2019-04-03T09:41:52.394Z,2.37
2019-04-03T09:44:40.126Z,2.20
2019-04-03T09:51:22.351Z,2.73
2019-04-03T09:57:32.514Z,2.40
2019-04-03T10:03:31.522Z,2.30
2019-04-03T10:06:06.373Z,2.50
2019-04-03T10:08:38.107Z,2.27
2019-04-03T10:11:10.992Z,2.07
2019-04-03T10:13:46.420Z,2.10
2019-04-03T10:16:23.185Z,2.20
2019-04-03T10:19:16.030Z,2.00
2019-04-03T10:22:06.176Z,2.27
2019-04-03T10:25:00.628Z,2.27
2019-04-03T10:28:15.061Z,2.70
2019-04-03T10:31:25.973Z,2.10
2019-04-03T10:37:05.469Z,2.40
2019-04-03T10:49:31.543Z,2.67
2019-04-03T10:52:14.470Z,2.00
2019-04-03T10:57:39.511Z,2.20
2019-04-03T11:00:22.077Z,2.13
2019-04-03T11:02:54.627Z,2.00
2019-04-03T11:05:46.172Z,1.70
2019-04-03T11:08:36.011Z,2.20
2019-04-03T11:11:27.201Z,1.70
2019-04-03T11:14:17.972Z,2.07
2019-04-03T11:17:09.208Z,2.40
2019-04-03T11:20:00.235Z,2.20
2019-04-03T11:22:41.069Z,2.50
2019-04-03T11:25:22.680Z,2.63
2019-04-03T11:27:54.344Z,2.57
2019-04-03T11:33:37.833Z,2.50
2019-04-03T11:36:30.173Z,2.73
2019-04-03T11:39:38.339Z,2.70
2019-04-03T11:42:22.182Z,2.60
2019-04-03T11:44:43.212Z,2.30
2019-04-03T11:47:32.961Z,2.37
2019-04-03T11:50:24.732Z,2.90
2019-04-03T11:52:55.478Z,2.77
2019-04-03T11:55:26.734Z,2.90
2019-04-03T11:57:59.283Z,2.77
2019-04-03T12:03:32.634Z,3.20
2019-04-03T12:06:03.866Z,2.93
2019-04-03T12:08:54.101Z,2.73
2019-04-03T12:11:43.911Z,2.90
2019-04-03T12:14:36.096Z,2.57
2019-04-03T12:17:29.382Z,2.90
2019-04-03T12:20:00.426Z,2.50
2019-04-03T12:22:54.577Z,3.30
2019-04-03T12:25:44.811Z,3.10
2019-04-03T12:28:34.650Z,3.40
2019-04-03T12:31:43.155Z,4.40
2019-04-03T12:34:14.282Z,4.10
2019-04-03T12:36:56.118Z,4.27
2019-04-03T12:39:28.067Z,4.40
2019-04-03T12:42:18.784Z,4.70
2019-04-03T12:44:50.016Z,5.20
2019-04-03T12:47:42.853Z,4.57
2019-04-03T12:53:41.603Z,4.87
2019-04-03T12:59:47.680Z,4.77
2019-04-03T13:02:38.493Z,4.60
2019-04-03T13:05:28.618Z,4.13
2019-04-03T13:08:21.766Z,3.83
2019-04-03T13:10:55.976Z,4.00
2019-04-03T13:16:24.280Z,3.87
2019-04-03T13:19:16.025Z,3.70
2019-04-03T13:24:56.456Z,3.10
2019-04-03T13:27:50.667Z,3.47
2019-04-03T13:30:43.469Z,2.83
2019-04-03T13:33:39.318Z,3.10
2019-04-03T13:36:24.314Z,2.63
2019-04-03T13:41:41.656Z,3.40
2019-04-03T13:44:30.890Z,2.80
2019-04-03T13:47:20.805Z,3.27
2019-04-03T13:50:13.245Z,3.13
2019-04-03T13:55:40.890Z,3.60
2019-04-03T13:58:31.692Z,3.07
2019-04-03T14:01:06.955Z,2.90
2019-04-03T14:03:54.494Z,2.93
2019-04-03T14:06:45.178Z,3.33
2019-04-03T14:09:35.452Z,3.07
2019-04-03T14:12:29.968Z,2.67
2019-04-03T14:15:21.547Z,2.67
2019-04-03T14:17:56.873Z,2.63
2019-04-03T14:20:45.780Z,3.00
2019-04-03T14:23:17.485Z,3.10
2019-04-03T14:26:05.682Z,3.20
2019-04-03T14:28:35.303Z,2.60
2019-04-03T14:31:34.708Z,3.50
2019-04-03T14:34:19.077Z,4.63
2019-04-03T14:36:51.081Z,4.50
2019-04-03T14:39:41.841Z,4.33
2019-04-03T14:45:09.324Z,4.00
2019-04-03T14:47:59.596Z,4.40
2019-04-03T14:50:36.493Z,3.40
2019-04-03T14:53:27.924Z,3.33
2019-04-03T14:56:34.220Z,3.17
2019-04-03T14:59:29.558Z,2.70
2019-04-03T15:05:28.715Z,2.47
2019-04-03T15:08:20.270Z,2.30
2019-04-03T15:11:11.548Z,1.77
2019-04-03T15:14:03.117Z,2.10
2019-04-03T15:17:04.408Z,2.47
2019-04-03T15:19:57.231Z,2.33
2019-04-03T18:38:12.407Z,3.83
2019-04-03T18:41:04.025Z,4.40
2019-04-03T18:43:48.364Z,4.90
2019-04-03T18:46:36.310Z,3.47
2019-04-03T18:49:16.516Z,2.30
2019-04-03T18:51:59.834Z,2.33
2019-04-03T18:54:45.040Z,2.00
2019-04-03T19:00:20.590Z,3.97
2019-04-03T19:03:11.204Z,5.17
2019-04-03T19:06:04.064Z,3.77
2019-04-03T19:08:36.495Z,3.60
2019-04-03T19:11:27.820Z,3.50
2019-04-03T19:27:50.064Z,3.80
2019-04-03T19:30:43.141Z,3.63
2019-04-03T19:33:48.240Z,2.60
2019-04-03T19:36:44.833Z,2.50
2019-04-03T19:45:51.432Z,2.63
2019-04-03T19:48:22.052Z,2.63
2019-04-03T19:51:06.948Z,2.73
2019-04-03T19:53:41.124Z,1.80
2019-04-03T19:56:49.371Z,1.80
2019-04-03T19:59:29.814Z,1.53
2019-04-03T20:04:23.334Z,2.30
2019-04-03T20:07:15.888Z,1.70
2019-04-03T20:10:06.971Z,1.87
2019-04-03T20:12:40.305Z,1.30
2019-04-03T20:15:36.743Z,2.63
2019-04-03T20:18:30.411Z,4.43
2019-04-03T20:21:20.447Z,3.53
2019-04-03T20:24:12.846Z,2.13
2019-04-03T20:27:05.364Z,2.00
2019-04-03T20:35:55.124Z,3.93
2019-04-03T20:38:44.233Z,1.47
2019-04-03T20:41:34.804Z,1.60
2019-04-03T20:44:05.237Z,2.00
2019-04-03T20:46:36.314Z,1.00
2019-04-03T20:49:30.265Z,1.00
2019-04-03T20:52:12.252Z,1.20
2019-04-03T20:54:53.996Z,1.47
2019-04-03T20:57:36.097Z,1.43
2019-04-03T21:03:02.836Z,1.10
2019-04-03T21:05:44.222Z,1.10
2019-04-03T21:08:28.146Z,1.33
2019-04-03T21:11:09.490Z,1.00
2019-04-03T21:13:40.196Z,1.10
2019-04-03T21:16:33.323Z,1.10
2019-04-03T21:19:02.493Z,1.10
2019-04-03T21:21:32.560Z,1.17
2019-04-03T21:24:04.010Z,1.10
2019-04-03T21:26:37.678Z,1.20
2019-04-03T21:29:26.008Z,1.17
2019-04-03T21:32:15.191Z,1.00
2019-04-03T21:37:56.317Z,1.20
2019-04-03T21:40:47.480Z,1.13
2019-04-03T21:43:37.670Z,1.30
2019-04-03T21:46:29.679Z,1.30
2019-04-03T21:49:20.459Z,2.03
2019-04-03T21:51:51.837Z,1.10
2019-04-03T21:54:22.765Z,1.00
2019-04-03T21:56:53.891Z,1.07
2019-04-03T21:59:43.038Z,1.50
2019-04-03T22:02:35.494Z,1.17
2019-04-03T22:05:07.364Z,1.53
2019-04-03T22:07:58.882Z,1.50
2019-04-03T22:10:50.511Z,1.10
2019-04-03T22:13:39.808Z,1.33
2019-04-03T22:16:09.888Z,1.23
2019-04-03T22:18:59.017Z,1.10
2019-04-03T22:21:48.138Z,1.37
2019-04-03T22:24:37.813Z,1.73
2019-04-03T22:27:46.451Z,1.87
2019-04-03T22:30:17.403Z,1.30
2019-04-03T22:33:06.672Z,1.30
2019-04-03T22:35:36.812Z,1.40
2019-04-03T22:38:07.838Z,1.20
2019-04-03T22:40:57.472Z,1.20
2019-04-03T22:46:25.375Z,1.20
2019-04-03T22:48:56.308Z,1.37
2019-04-03T22:51:38.534Z,1.80
2019-04-03T22:54:20.540Z,2.03
2019-04-03T22:57:02.002Z,1.10
2019-04-03T22:59:32.619Z,2.10
2019-04-03T23:02:23.035Z,2.20
2019-04-03T23:05:12.372Z,1.30
2019-04-03T23:07:42.489Z,1.70
2019-04-03T23:10:31.589Z,1.40
2019-04-03T23:13:20.694Z,1.50
2019-04-03T23:15:51.573Z,1.40
2019-04-03T23:18:40.666Z,1.47
2019-04-03T23:21:30.364Z,1.00
2019-04-03T23:24:20.025Z,8.07
2019-04-03T23:27:28.053Z,5.20
2019-04-03T23:30:17.980Z,2.53
2019-04-03T23:33:26.592Z,1.80
2019-04-03T23:35:58.270Z,2.17
2019-04-03T23:38:47.459Z,3.30
2019-04-03T23:41:37.063Z,2.57
2019-04-03T23:44:11.632Z,1.80
2019-04-03T23:46:45.359Z,1.73
2019-04-03T23:49:34.802Z,1.60
2019-04-03T23:55:18.381Z,1.53
2019-04-03T23:58:27.344Z,1.63
